Time;durP1;ratioP1;P1;durP2;ratioP2;P2;SDS_P1;SDS_P2;PMS_P1;PMS_P2;Temp;Humidity;BMP_temperature;BMP_pressure;BME280_temperature;BME280_humidity;BME280_pressure;Samples;Min_cycle;Max_cycle;Signal;HPM_P1;HPM_P2
2023/07/09 00:00:18;;;;;;;11.05;6.18;;;;;;;21.88;79.79;101572.00;4990441;28;20459;-71
2023/07/09 00:02:44;;;;;;;9.23;5.63;;;;;;;21.87;79.05;101566.63;4990712;28;20043;-71
2023/07/09 00:05:16;;;;;;;8.43;6.20;;;;;;;21.84;78.67;101569.72;4990009;28;20049;-70
2023/07/09 00:07:43;;;;;;;14.13;6.75;;;;;;;21.84;79.09;101569.72;5007841;28;20782;-70
2023/07/09 00:10:20;;;;;;;13.00;6.10;;;;;;;21.79;79.00;101570.22;5001041;28;20526;-71
2023/07/09 00:12:47;;;;;;;13.07;5.88;;;;;;;21.75;79.99;101571.59;4990045;28;20042;-70
2023/07/09 00:15:15;;;;;;;13.32;6.68;;;;;;;21.71;79.77;101578.50;4990929;28;20474;-69
2023/07/09 00:17:41;;;;;;;9.20;6.00;;;;;;;21.70;80.56;101582.31;4990291;28;20347;-71
2023/07/09 00:20:13;;;;;;;12.07;6.45;;;;;;;21.65;79.77;101576.41;4989982;28;20038;-71
2023/07/09 00:22:47;;;;;;;12.90;5.82;;;;;;;21.63;79.78;101582.09;4999172;28;20112;-70
2023/07/09 00:25:16;;;;;;;9.13;6.40;;;;;;;21.59;80.12;101580.72;5006528;28;20056;-70
2023/07/09 00:27:44;;;;;;;11.23;6.50;;;;;;;21.58;80.32;101578.09;4989860;28;20023;-70
2023/07/09 00:30:18;;;;;;;9.88;6.50;;;;;;;21.51;81.14;101582.56;5004016;28;20486;-71
2023/07/09 00:32:44;;;;;;;12.18;6.47;;;;;;;21.46;81.58;101583.06;5004534;28;20034;-71
2023/07/09 00:35:15;;;;;;;15.68;6.57;;;;;;;21.40;81.57;101586.44;4988004;28;20045;-70
2023/07/09 00:37:42;;;;;;;8.65;5.72;;;;;;;21.36;80.91;101587.84;4988051;28;20089;-71
2023/07/09 00:40:20;;;;;;;9.55;7.25;;;;;;;21.32;81.21;101592.81;4989149;28;20073;-70
2023/07/09 00:42:55;;;;;;;10.00;6.38;;;;;;;21.31;80.66;101595.75;4988065;28;20058;-70
2023/07/09 00:45:26;;;;;;;12.88;6.78;;;;;;;21.30;80.87;101596.75;4990425;28;20100;-69
2023/07/09 00:48:00;;;;;;;11.13;6.70;;;;;;;21.25;81.97;101597.22;4989446;28;20038;-69
2023/07/09 00:50:33;;;;;;;11.25;6.82;;;;;;;21.20;81.52;101596.84;5004437;28;20572;-71
2023/07/09 00:53:29;;;;;;;8.20;6.20;;;;;;;21.26;80.20;101606.41;4991960;28;20046;-70
2023/07/09 00:56:04;;;;;;;8.68;6.63;;;;;;;21.23;80.95;101593.78;4992615;28;20053;-69
2023/07/09 00:58:32;;;;;;;11.93;6.55;;;;;;;21.20;81.53;101588.56;5007760;28;20508;-71
2023/07/09 01:01:05;;;;;;;8.60;6.13;;;;;;;21.22;81.07;101588.41;5000935;28;20486;-69
2023/07/09 01:03:42;;;;;;;12.75;7.60;;;;;;;21.14;82.05;101590.06;4989375;28;20047;-70
2023/07/09 01:06:09;;;;;;;13.20;7.35;;;;;;;21.14;81.02;101591.97;5003686;28;20034;-71
2023/07/09 01:08:38;;;;;;;9.70;6.45;;;;;;;21.14;81.06;101586.44;4993907;28;20029;-70
2023/07/09 01:11:03;;;;;;;12.90;6.82;;;;;;;21.12;81.69;101588.47;4999709;28;20053;-70
2023/07/09 01:13:32;;;;;;;13.77;7.00;;;;;;;21.09;81.81;101589.69;5004138;28;20019;-70
2023/07/09 01:15:58;;;;;;;11.45;6.50;;;;;;;21.07;81.67;101588.97;5003851;28;20038;-71
2023/07/09 01:18:24;;;;;;;11.57;7.35;;;;;;;21.04;82.38;101585.69;5004028;28;20042;-69
2023/07/09 01:20:52;;;;;;;10.00;6.78;;;;;;;21.00;82.71;101585.13;5003833;28;20049;-71
2023/07/09 01:23:18;;;;;;;10.65;6.72;;;;;;;20.98;82.20;101580.78;4989045;28;20137;-71
2023/07/09 01:25:54;;;;;;;12.23;6.65;;;;;;;20.95;82.02;101583.88;4986729;28;20498;-69
2023/07/09 01:28:20;;;;;;;12.13;6.50;;;;;;;20.92;82.68;101592.50;4989454;28;20513;-70
2023/07/09 01:30:46;;;;;;;12.35;7.32;;;;;;;20.86;82.70;101586.56;4986879;28;20125;-71
2023/07/09 01:33:11;;;;;;;15.15;7.82;;;;;;;20.82;83.06;101587.91;4987213;28;20640;-71
2023/07/09 01:35:42;;;;;;;11.30;7.07;;;;;;;20.79;82.87;101591.00;5003344;28;20130;-70
2023/07/09 01:38:08;;;;;;;13.95;7.10;;;;;;;20.77;82.84;101587.53;5002841;28;20088;-70
2023/07/09 01:40:35;;;;;;;11.63;7.35;;;;;;;20.77;82.76;101594.97;4988665;28;20362;-70
2023/07/09 01:43:06;;;;;;;10.40;7.90;;;;;;;20.74;82.78;101592.50;4988584;28;20512;-70
2023/07/09 01:45:33;;;;;;;10.32;6.78;;;;;;;20.69;82.64;101592.97;4988973;28;20081;-70
2023/07/09 01:47:58;;;;;;;9.40;7.15;;;;;;;20.64;84.13;101592.59;4988219;28;20042;-70
2023/07/09 01:50:24;;;;;;;12.50;7.05;;;;;;;20.58;83.94;101588.56;4988750;28;20034;-69
2023/07/09 01:52:50;;;;;;;11.90;7.15;;;;;;;20.47;87.53;101598.94;4988892;28;20026;-70
2023/07/09 01:55:16;;;;;;;10.43;7.28;;;;;;;20.28;87.88;101602.72;5002267;28;20038;-70
2023/07/09 01:57:42;;;;;;;11.75;6.47;;;;;;;20.17;86.21;101603.81;4988127;28;20038;-70
2023/07/09 02:00:11;;;;;;;15.63;8.38;;;;;;;20.24;85.95;101604.09;5003660;28;20030;-70
2023/07/09 02:02:44;;;;;;;14.27;8.32;;;;;;;20.26;85.46;101610.31;4988607;28;20038;-70
2023/07/09 02:05:12;;;;;;;16.42;8.13;;;;;;;20.21;86.16;101615.44;4988917;28;20058;-70
2023/07/09 02:07:38;;;;;;;13.43;8.25;;;;;;;20.25;84.33;101617.72;4987748;28;20133;-70
2023/07/09 02:10:05;;;;;;;14.45;7.68;;;;;;;20.27;84.79;101617.56;4986053;28;20030;-70
2023/07/09 02:12:31;;;;;;;14.15;8.25;;;;;;;20.27;85.67;101614.81;4986327;28;20038;-69
2023/07/09 02:14:56;;;;;;;13.73;8.82;;;;;;;20.30;84.64;101620.91;4986257;28;20173;-70
2023/07/09 02:17:23;;;;;;;14.40;8.80;;;;;;;20.32;85.63;101609.69;5002950;28;20077;-71
2023/07/09 02:19:48;;;;;;;13.65;7.78;;;;;;;20.32;84.21;101615.19;4993674;28;20434;-70
2023/07/09 02:22:14;;;;;;;13.05;8.52;;;;;;;20.33;84.52;101614.16;5006915;28;20053;-70
2023/07/09 02:24:39;;;;;;;17.65;9.25;;;;;;;20.29;85.89;101610.88;4997694;28;20102;-70
2023/07/09 02:27:07;;;;;;;15.85;8.88;;;;;;;20.27;85.92;101620.34;5002204;28;20089;-70
2023/07/09 02:29:33;;;;;;;16.10;8.35;;;;;;;20.26;85.29;101616.69;5003162;28;20034;-70
2023/07/09 02:32:00;;;;;;;13.57;7.95;;;;;;;20.25;85.09;101608.56;4987977;28;20550;-70
2023/07/09 02:34:27;;;;;;;11.52;8.32;;;;;;;20.19;86.66;101609.19;4987861;28;20088;-69
2023/07/09 02:36:53;;;;;;;14.07;8.88;;;;;;;20.16;85.95;101607.63;4986776;28;20490;-70
2023/07/09 02:39:20;;;;;;;17.95;8.88;;;;;;;20.16;85.39;101603.97;5002653;28;20050;-69
2023/07/09 02:41:46;;;;;;;13.20;9.38;;;;;;;20.14;85.75;101601.34;5001483;28;20526;-70
2023/07/09 02:44:12;;;;;;;20.40;9.68;;;;;;;20.13;85.35;101613.44;5002528;28;20045;-69
2023/07/09 02:46:37;;;;;;;18.85;9.82;;;;;;;20.09;86.29;101606.47;5002127;28;20042;-71
2023/07/09 02:49:04;;;;;;;17.95;8.40;;;;;;;20.07;86.11;101606.66;4985952;28;20030;-70
2023/07/09 02:51:29;;;;;;;14.23;9.00;;;;;;;20.07;85.36;101608.53;4985191;28;20065;-70
2023/07/09 02:53:57;;;;;;;14.85;8.43;;;;;;;20.06;85.46;101613.19;4987406;28;20084;-69
2023/07/09 02:56:23;;;;;;;13.25;9.43;;;;;;;20.06;84.89;101609.56;4994617;28;20026;-70
2023/07/09 02:58:50;;;;;;;13.30;9.05;;;;;;;20.00;85.82;101610.16;5006241;28;20512;-70
2023/07/09 03:01:15;;;;;;;14.20;9.02;;;;;;;19.98;85.74;101601.19;4994841;28;20463;-69
2023/07/09 03:03:41;;;;;;;13.55;9.70;;;;;;;19.98;85.06;101604.81;5002508;28;20085;-70
2023/07/09 03:06:07;;;;;;;12.95;8.68;;;;;;;19.98;85.12;101603.94;4987475;28;20457;-70
2023/07/09 03:08:32;;;;;;;12.57;9.60;;;;;;;19.98;85.81;101607.56;5002029;28;20406;-69
2023/07/09 03:10:58;;;;;;;12.55;9.50;;;;;;;19.97;85.47;101607.72;4986881;28;20030;-70
2023/07/09 03:13:23;;;;;;;13.02;9.00;;;;;;;19.97;85.58;101607.72;4987227;28;20046;-70
2023/07/09 03:15:58;;;;;;;13.25;8.75;;;;;;;19.94;85.11;101602.50;5002559;28;20046;-69
2023/07/09 03:18:24;;;;;;;21.10;9.00;;;;;;;19.93;85.68;101607.16;4985969;28;20034;-70
2023/07/09 03:20:50;;;;;;;13.45;8.60;;;;;;;19.91;85.45;101608.31;4987831;28;20030;-70
2023/07/09 03:23:15;;;;;;;12.90;7.90;;;;;;;19.91;85.29;101606.47;4987392;28;20532;-70
2023/07/09 03:25:41;;;;;;;13.50;8.77;;;;;;;19.87;85.68;101603.13;4986825;28;20565;-70
2023/07/09 03:28:07;;;;;;;14.00;8.63;;;;;;;19.87;85.71;101605.03;5001828;28;20570;-70
2023/07/09 03:30:32;;;;;;;13.57;9.40;;;;;;;19.86;86.19;101606.03;5002917;28;20145;-70
2023/07/09 03:32:58;;;;;;;12.70;8.65;;;;;;;19.84;85.78;101603.41;4987094;28;20044;-69
2023/07/09 03:35:23;;;;;;;11.50;8.32;;;;;;;19.86;86.41;101608.78;4986781;28;20035;-70
2023/07/09 03:37:49;;;;;;;13.45;9.15;;;;;;;19.84;86.23;101597.91;4987421;28;20410;-69
2023/07/09 03:40:21;;;;;;;12.90;8.38;;;;;;;19.83;85.63;101598.94;4986655;28;20442;-69
2023/07/09 03:42:47;;;;;;;12.57;8.95;;;;;;;19.82;85.55;101596.34;4987599;28;20501;-70
2023/07/09 03:45:12;;;;;;;13.35;8.65;;;;;;;19.81;86.05;101605.63;4987910;28;20043;-70
2023/07/09 03:47:37;;;;;;;14.07;9.30;;;;;;;19.79;86.38;101596.63;4986812;28;20498;-70
2023/07/09 03:50:05;;;;;;;14.98;8.70;;;;;;;19.80;85.54;101604.75;5002187;28;20049;-70
2023/07/09 03:52:31;;;;;;;15.80;9.43;;;;;;;19.80;86.21;101595.59;4986261;28;20050;-70
2023/07/09 03:54:56;;;;;;;14.40;9.48;;;;;;;19.78;86.80;101593.00;4986232;28;20157;-69
2023/07/09 03:57:21;;;;;;;16.40;10.35;;;;;;;19.74;88.50;101594.31;5019283;28;20045;-69
2023/07/09 03:59:47;;;;;;;14.93;9.15;;;;;;;19.75;87.02;101600.72;5005714;28;20041;-70
2023/07/09 04:02:12;;;;;;;14.55;8.93;;;;;;;19.77;86.77;101594.03;4987092;28;20026;-70
2023/07/09 04:04:37;;;;;;;14.73;9.60;;;;;;;19.80;87.33;101598.34;4988850;28;20046;-70
2023/07/09 04:07:03;;;;;;;15.50;11.07;;;;;;;19.83;87.09;101607.22;4989717;28;20075;-70
2023/07/09 04:09:28;;;;;;;16.30;10.48;;;;;;;19.90;86.39;101601.06;4990165;28;20042;-70
2023/07/09 04:11:54;;;;;;;18.23;9.60;;;;;;;19.92;86.23;101602.66;4990102;28;20101;-70
2023/07/09 04:14:19;;;;;;;18.20;11.40;;;;;;;19.94;86.30;101599.75;4990727;28;20035;-70
2023/07/09 04:16:44;;;;;;;18.73;10.07;;;;;;;19.98;85.79;101601.19;4990414;28;20042;-69
2023/07/09 04:19:10;;;;;;;17.17;11.13;;;;;;;20.01;85.66;101600.88;4990287;28;20143;-70
2023/07/09 04:21:35;;;;;;;19.92;11.38;;;;;;;20.04;86.04;101601.41;5004682;28;20030;-69
2023/07/09 04:24:00;;;;;;;17.13;11.25;;;;;;;20.08;85.94;101604.75;4990059;28;20042;-69
2023/07/09 04:26:27;;;;;;;15.52;10.98;;;;;;;20.11;86.45;101607.22;5013783;28;20092;-69
2023/07/09 04:28:52;;;;;;;16.30;11.38;;;;;;;20.13;86.20;101602.38;4998898;28;20541;-70
2023/07/09 04:31:18;;;;;;;17.17;11.90;;;;;;;20.17;86.46;101605.72;4998108;28;20030;-70
2023/07/09 04:33:45;;;;;;;16.50;12.15;;;;;;;20.22;87.18;101606.97;5007814;28;20014;-70
2023/07/09 04:36:12;;;;;;;22.25;13.77;;;;;;;20.24;86.86;101610.47;5009032;28;20081;-69
2023/07/09 04:38:38;;;;;;;18.52;13.15;;;;;;;20.30;87.26;101607.06;4997073;28;20093;-69
2023/07/09 04:41:03;;;;;;;23.92;17.33;;;;;;;20.34;87.72;101602.13;4989249;28;20069;-69
2023/07/09 04:43:29;;;;;;;16.60;12.50;;;;;;;20.37;87.03;101599.88;4989797;28;20117;-69
2023/07/09 04:45:54;;;;;;;20.50;13.95;;;;;;;20.44;87.52;101600.16;4989586;28;20114;-70
2023/07/09 04:48:20;;;;;;;22.83;15.52;;;;;;;20.47;87.58;101597.13;4989963;28;20066;-70
2023/07/09 04:50:49;;;;;;;20.88;14.20;;;;;;;20.55;87.96;101605.47;4989766;28;20026;-70
2023/07/09 04:53:15;;;;;;;22.00;15.02;;;;;;;20.66;86.34;101615.44;4988819;28;20533;-70
2023/07/09 04:55:40;;;;;;;21.30;14.43;;;;;;;20.76;87.32;101604.28;4989364;28;20046;-69
2023/07/09 04:58:06;;;;;;;21.65;15.73;;;;;;;20.82;86.13;101604.50;4987955;28;20137;-70
2023/07/09 05:00:31;;;;;;;22.38;16.00;;;;;;;20.87;87.13;101599.38;4989881;28;20077;-70
2023/07/09 05:02:56;;;;;;;23.48;16.98;;;;;;;20.95;86.54;101606.88;4989556;28;20049;-70
2023/07/09 05:05:23;;;;;;;29.38;20.05;;;;;;;21.00;87.33;101606.41;4988878;28;20034;-68
2023/07/09 05:07:50;;;;;;;22.25;17.25;;;;;;;21.09;86.23;101602.66;4989637;28;20040;-70
2023/07/09 05:10:16;;;;;;;20.92;16.92;;;;;;;21.15;86.59;101600.09;4988834;28;20108;-69
2023/07/09 05:12:52;;;;;;;24.73;18.15;;;;;;;21.24;86.77;101606.56;5003813;28;20482;-70
2023/07/09 05:15:19;;;;;;;24.77;17.98;;;;;;;21.32;86.23;101606.66;4988334;28;20038;-70
2023/07/09 05:17:45;;;;;;;26.60;18.20;;;;;;;21.42;86.52;101609.31;4989037;28;20042;-70
2023/07/09 05:20:11;;;;;;;24.75;19.08;;;;;;;21.52;85.46;101606.44;4989549;28;20128;-70
2023/07/09 05:22:36;;;;;;;26.17;19.58;;;;;;;21.59;85.46;101602.88;4987070;28;20387;-69
2023/07/09 05:25:02;;;;;;;24.63;19.10;;;;;;;21.68;85.94;101598.22;4988687;28;20450;-70
2023/07/09 05:27:27;;;;;;;29.08;22.20;;;;;;;21.78;86.26;101601.75;4987131;28;20473;-70
2023/07/09 05:29:52;;;;;;;28.67;22.35;;;;;;;21.89;86.42;101601.44;4989281;28;20038;-69
2023/07/09 05:32:18;;;;;;;30.15;22.48;;;;;;;21.99;87.67;101604.06;4989747;28;20023;-70
2023/07/09 05:34:43;;;;;;;33.30;25.35;;;;;;;22.08;87.40;101602.19;4989107;28;20498;-69
2023/07/09 05:37:08;;;;;;;32.00;24.27;;;;;;;22.20;86.46;101608.34;4987822;28;20410;-70
2023/07/09 05:39:34;;;;;;;36.28;25.00;;;;;;;22.31;85.97;101600.56;4988185;28;20506;-69
2023/07/09 05:41:59;;;;;;;33.15;26.58;;;;;;;22.42;87.61;101599.38;4988160;28;20038;-69
2023/07/09 05:44:25;;;;;;;28.50;22.73;;;;;;;22.52;85.14;101604.75;4988737;28;20078;-69
2023/07/09 05:46:50;;;;;;;29.88;23.40;;;;;;;22.64;84.90;101600.63;4989397;28;20435;-69
2023/07/09 05:49:15;;;;;;;31.90;23.63;;;;;;;22.71;86.16;101595.25;4988220;28;20514;-70
2023/07/09 05:51:42;;;;;;;28.90;21.73;;;;;;;22.79;85.44;101598.03;4987669;28;20022;-70
2023/07/09 05:54:07;;;;;;;30.58;22.55;;;;;;;22.89;85.45;101598.75;4988460;28;20397;-70
2023/07/09 05:56:33;;;;;;;29.77;20.65;;;;;;;22.98;82.96;101607.94;4987999;28;20045;-70
2023/07/09 05:58:59;;;;;;;24.58;19.05;;;;;;;23.09;84.74;101597.38;4988429;28;20514;-69
2023/07/09 06:01:26;;;;;;;26.42;21.02;;;;;;;23.18;85.31;101606.56;4988558;28;20126;-70
2023/07/09 06:03:51;;;;;;;27.70;20.55;;;;;;;23.28;85.24;101604.47;4988229;28;20549;-69
2023/07/09 06:06:17;;;;;;;28.85;19.83;;;;;;;23.40;83.81;101610.50;4987461;28;20038;-70
2023/07/09 06:08:42;;;;;;;26.30;18.13;;;;;;;23.51;82.79;101618.50;4987946;28;20030;-70
2023/07/09 06:11:08;;;;;;;28.35;19.50;;;;;;;23.56;81.45;101615.19;5002967;28;20102;-69
2023/07/09 06:13:34;;;;;;;29.77;19.95;;;;;;;23.66;82.23;101610.31;4988029;28;20078;-69
2023/07/09 06:16:00;;;;;;;28.58;18.98;;;;;;;23.76;83.44;101613.75;4988000;28;20530;-71
2023/07/09 06:18:29;;;;;;;27.30;18.45;;;;;;;23.84;79.11;101613.72;4987980;28;20054;-71
2023/07/09 06:20:57;;;;;;;29.88;20.17;;;;;;;23.93;81.24;101617.34;4987299;28;20042;-71
2023/07/09 06:23:23;;;;;;;28.83;19.52;;;;;;;24.00;79.90;101618.34;5002544;28;20064;-70
2023/07/09 06:25:48;;;;;;;24.63;17.13;;;;;;;24.10;78.59;101626.47;4988317;28;20042;-70
2023/07/09 06:28:15;;;;;;;23.30;18.48;;;;;;;24.16;79.10;101621.06;4987326;28;20470;-71
2023/07/09 06:30:41;;;;;;;21.83;16.85;;;;;;;24.22;79.37;101611.13;4988238;28;20057;-70
2023/07/09 06:33:06;;;;;;;22.98;17.02;;;;;;;24.30;77.79;101622.22;4987550;28;20070;-70
2023/07/09 06:35:32;;;;;;;21.02;15.80;;;;;;;24.38;77.32;101619.41;5002474;28;20097;-70
2023/07/09 06:37:57;;;;;;;26.80;16.88;;;;;;;24.41;77.64;101612.63;4987654;28;20034;-70
2023/07/09 06:40:24;;;;;;;25.65;16.52;;;;;;;24.47;78.73;101611.88;4987174;28;20050;-70
2023/07/09 06:42:49;;;;;;;23.65;15.65;;;;;;;24.52;78.51;101614.97;4988148;28;20725;-70
2023/07/09 06:45:25;;;;;;;23.38;15.43;;;;;;;24.63;76.86;101617.34;5002995;28;20038;-70
2023/07/09 06:47:50;;;;;;;26.50;16.40;;;;;;;24.73;76.79;101616.22;4990672;28;20034;-70
2023/07/09 06:50:15;;;;;;;23.13;16.02;;;;;;;24.80;77.24;101611.66;5006899;28;20038;-70
2023/07/09 06:52:41;;;;;;;25.63;15.63;;;;;;;24.86;77.38;101617.34;5006053;28;20052;-69
2023/07/09 06:55:07;;;;;;;23.48;16.30;;;;;;;24.90;77.63;101613.16;5006437;28;20490;-70
2023/07/09 06:57:33;;;;;;;21.10;15.10;;;;;;;25.00;78.22;101621.25;4988187;28;20034;-70
2023/07/09 06:59:58;;;;;;;20.60;14.38;;;;;;;25.11;78.86;101620.81;4988004;28;20088;-70
2023/07/09 07:02:24;;;;;;;19.80;12.85;;;;;;;25.25;77.11;101632.19;4987778;28;20019;-70
2023/07/09 07:04:49;;;;;;;21.45;14.80;;;;;;;25.34;76.08;101620.78;4987694;28;20108;-70
2023/07/09 07:07:15;;;;;;;18.92;13.23;;;;;;;25.41;75.60;101624.53;4986719;28;20753;-70
2023/07/09 07:09:40;;;;;;;21.33;14.15;;;;;;;25.51;75.16;101623.38;5001791;28;20130;-69
2023/07/09 07:12:06;;;;;;;20.40;13.98;;;;;;;25.61;75.01;101627.63;4986936;28;20034;-70
2023/07/09 07:14:31;;;;;;;17.60;12.80;;;;;;;25.67;73.39;101621.28;4987335;28;20069;-70
2023/07/09 07:16:57;;;;;;;19.00;12.07;;;;;;;25.75;71.45;101630.63;5001764;28;20394;-70
2023/07/09 07:19:23;;;;;;;19.25;12.80;;;;;;;25.80;70.67;101626.25;4987377;28;20122;-70
2023/07/09 07:21:48;;;;;;;17.60;12.38;;;;;;;25.91;70.19;101628.53;4987426;28;20109;-70
2023/07/09 07:24:13;;;;;;;17.73;11.98;;;;;;;26.02;70.83;101629.97;4986995;28;20086;-70
2023/07/09 07:26:39;;;;;;;15.25;11.63;;;;;;;26.27;71.72;101626.88;4986984;28;20050;-70
2023/07/09 07:29:04;;;;;;;25.17;12.77;;;;;;;26.38;70.55;101624.41;4987591;28;20058;-70
2023/07/09 07:31:29;;;;;;;18.25;12.43;;;;;;;26.44;70.18;101631.19;4988565;28;20038;-70
2023/07/09 07:33:55;;;;;;;20.23;11.45;;;;;;;26.53;70.21;101637.50;4987528;28;20046;-70
2023/07/09 07:36:20;;;;;;;18.25;11.88;;;;;;;26.65;70.14;101630.34;4994628;28;20117;-68
2023/07/09 07:38:46;;;;;;;22.17;12.35;;;;;;;26.71;69.60;101630.41;5003919;28;20133;-68
2023/07/09 07:41:11;;;;;;;19.08;11.88;;;;;;;26.81;69.61;101623.63;4990523;28;20486;-68
2023/07/09 07:43:37;;;;;;;15.85;11.35;;;;;;;26.87;68.61;101620.06;4990795;28;20057;-69
2023/07/09 07:46:02;;;;;;;18.42;12.25;;;;;;;26.98;69.95;101627.91;4989478;28;20428;-68
2023/07/09 07:48:28;;;;;;;19.35;9.25;;;;;;;27.07;65.77;101620.25;4990497;28;20038;-68
2023/07/09 07:50:59;;;;;;;14.77;9.15;;;;;;;27.16;65.25;101619.06;4990234;28;20030;-68
2023/07/09 07:53:24;;;;;;;11.13;7.80;;;;;;;27.29;64.68;101621.97;4999916;28;20042;-67
2023/07/09 07:55:51;;;;;;;11.50;7.85;;;;;;;27.31;63.24;101622.63;4990510;28;20033;-68
2023/07/09 07:58:17;;;;;;;10.27;6.70;;;;;;;27.31;58.24;101624.56;5006135;28;20077;-68
2023/07/09 08:00:42;;;;;;;11.13;6.93;;;;;;;27.36;56.95;101616.44;5005296;28;20143;-69
2023/07/09 08:03:08;;;;;;;13.80;7.40;;;;;;;27.48;62.76;101622.34;4990435;28;20133;-68
2023/07/09 08:05:33;;;;;;;9.35;6.45;;;;;;;27.62;59.82;101621.38;4989116;28;20038;-69
2023/07/09 08:07:59;;;;;;;13.60;6.85;;;;;;;27.78;61.36;101615.47;4990077;28;20042;-68
2023/07/09 08:10:24;;;;;;;10.35;6.97;;;;;;;28.01;61.74;101617.09;4990635;28;20565;-68
2023/07/09 08:12:49;;;;;;;10.07;6.68;;;;;;;28.41;60.05;101616.25;4990721;28;20041;-68
2023/07/09 08:15:15;;;;;;;10.38;6.93;;;;;;;28.98;57.31;101617.69;4990622;28;20140;-68
2023/07/09 08:17:40;;;;;;;11.32;7.18;;;;;;;29.54;54.31;101616.38;4990556;28;20091;-68
2023/07/09 08:20:06;;;;;;;10.23;6.28;;;;;;;29.83;55.99;101612.25;4990135;28;20034;-69
2023/07/09 08:22:31;;;;;;;10.48;6.82;;;;;;;30.29;52.96;101616.88;5004337;28;20038;-68
2023/07/09 08:24:57;;;;;;;11.05;6.70;;;;;;;30.74;52.73;101612.13;4990124;28;20031;-68
2023/07/09 08:27:22;;;;;;;11.85;6.70;;;;;;;31.24;52.39;101612.19;4989498;28;20042;-68
2023/07/09 08:29:47;;;;;;;12.90;7.13;;;;;;;31.54;47.13;101608.69;4991041;28;20034;-67
2023/07/09 08:32:13;;;;;;;11.57;6.40;;;;;;;31.70;46.05;101612.84;4990372;28;20119;-68
2023/07/09 08:34:40;;;;;;;12.85;7.30;;;;;;;31.98;45.52;101612.34;5004627;28;20038;-69
2023/07/09 08:37:08;;;;;;;12.43;6.72;;;;;;;32.38;47.18;101612.72;4989524;28;20030;-68
2023/07/09 08:39:34;;;;;;;12.43;7.10;;;;;;;32.73;44.41;101609.19;4989296;28;20050;-67
2023/07/09 08:42:03;;;;;;;10.40;6.65;;;;;;;33.10;44.83;101614.72;4988084;28;20038;-68
2023/07/09 08:44:31;;;;;;;41.97;7.90;;;;;;;33.31;45.89;101608.50;4989779;28;20034;-67
2023/07/09 08:47:51;;;;;;;12.38;7.25;;;;;;;33.45;46.34;101612.84;4990004;28;20038;-68
2023/07/09 08:50:24;;;;;;;11.48;6.07;;;;;;;33.88;45.16;101607.91;4972673;28;20057;-68
2023/07/09 08:52:52;;;;;;;14.43;6.88;;;;;;;34.04;43.90;101615.63;4990205;28;20124;-69
2023/07/09 08:55:21;;;;;;;9.50;6.38;;;;;;;34.22;45.76;101612.63;4989561;28;20134;-69
2023/07/09 08:57:52;;;;;;;8.93;6.53;;;;;;;34.57;41.94;101623.00;4988883;28;20395;-68
2023/07/09 09:00:27;;;;;;;13.02;7.07;;;;;;;34.75;43.87;101616.28;4990516;28;20540;-68
2023/07/09 09:03:04;;;;;;;11.27;6.78;;;;;;;34.91;42.12;101621.09;4989662;28;20038;-68
2023/07/09 09:05:33;;;;;;;9.25;6.50;;;;;;;35.20;39.40;101609.75;4989230;28;20038;-68
2023/07/09 09:08:31;;;;;;;8.88;6.70;;;;;;;35.32;42.80;101601.19;4989033;28;20084;-68
2023/07/09 09:11:07;;;;;;;12.52;7.13;;;;;;;35.11;40.19;101606.50;4989347;28;20034;-67
2023/07/09 09:13:33;;;;;;;11.68;6.90;;;;;;;35.25;42.36;101612.66;4989244;28;20050;-69
2023/07/09 09:16:06;;;;;;;9.70;7.22;;;;;;;35.36;39.71;101608.91;4989376;28;20046;-68
2023/07/09 09:18:40;;;;;;;10.43;6.72;;;;;;;35.68;39.90;101609.16;4989262;28;20045;-68
2023/07/09 09:21:31;;;;;;;8.80;6.95;;;;;;;35.87;37.98;101598.41;4988856;28;20505;-68
2023/07/09 09:23:59;;;;;;;8.18;6.25;;;;;;;36.08;38.82;101599.53;4989087;28;20378;-68
2023/07/09 09:26:31;;;;;;;9.68;6.90;;;;;;;36.17;40.04;101602.78;4988647;28;20473;-67
2023/07/09 09:28:57;;;;;;;8.10;6.97;;;;;;;36.16;37.22;101604.75;4988886;28;20034;-67
2023/07/09 09:31:26;;;;;;;28.95;7.75;;;;;;;36.42;38.15;101608.78;4989813;28;20061;-68
2023/07/09 09:33:52;;;;;;;11.40;6.90;;;;;;;36.57;36.61;101602.44;4989285;28;20401;-69
2023/07/09 09:36:26;;;;;;;9.88;7.35;;;;;;;36.63;37.83;101598.53;4989416;28;20045;-68
2023/07/09 09:38:52;;;;;;;13.13;7.22;;;;;;;36.61;37.22;101589.47;4987494;28;20061;-68
2023/07/09 09:41:20;;;;;;;11.70;7.55;;;;;;;36.69;37.44;101585.25;4988858;28;20383;-67
2023/07/09 09:43:47;;;;;;;10.38;6.70;;;;;;;36.76;38.00;101592.44;4988693;28;20045;-68
2023/07/09 09:46:22;;;;;;;8.77;6.80;;;;;;;37.02;38.20;101589.88;4988888;28;20106;-68
2023/07/09 09:48:50;;;;;;;11.80;7.18;;;;;;;36.92;34.19;101593.47;4988960;28;20072;-68
2023/07/09 09:51:17;;;;;;;12.07;7.38;;;;;;;36.23;33.88;101579.03;4988048;28;20034;-68
2023/07/09 09:53:52;;;;;;;11.77;7.13;;;;;;;35.90;36.94;101578.03;4988480;28;20065;-67
2023/07/09 09:56:26;;;;;;;7.82;6.07;;;;;;;36.33;36.40;101569.81;4988272;28;20034;-67
2023/07/09 09:58:54;;;;;;;9.10;6.20;;;;;;;36.92;37.97;101564.25;4989055;28;20053;-68
2023/07/09 10:01:19;;;;;;;8.73;5.93;;;;;;;37.16;36.60;101562.75;4989213;28;20102;-68
2023/07/09 10:03:48;;;;;;;12.07;6.65;;;;;;;37.33;35.23;101564.59;4988452;28;20188;-68
2023/07/09 10:06:25;;;;;;;9.75;6.22;;;;;;;37.26;35.45;101567.63;4987828;28;20028;-69
2023/07/09 10:09:30;;;;;;;12.45;6.63;;;;;;;37.42;36.50;101572.34;4988581;28;20042;-67
2023/07/09 10:12:08;;;;;;;7.43;5.72;;;;;;;37.67;37.38;101567.94;4984378;28;20070;-67
2023/07/09 10:14:39;;;;;;;12.05;6.50;;;;;;;37.80;35.82;101576.00;4988750;28;20066;-67
2023/07/09 10:17:11;;;;;;;;;;;;;;;38.10;37.48;101578.16;4988927;28;20041;-67
2023/07/09 10:19:53;;;;;;;10.30;6.07;;;;;;;38.17;37.33;101572.22;4988320;28;19968;-68
2023/07/09 10:22:39;;;;;;;11.07;6.88;;;;;;;38.42;36.44;101586.53;4987735;28;20050;-68
2023/07/09 10:25:16;;;;;;;10.68;5.82;;;;;;;38.58;36.05;101593.13;4987857;28;20050;-68
2023/07/09 10:28:15;;;;;;;12.63;6.85;;;;;;;38.69;34.88;101591.16;4988676;28;20447;-68
2023/07/09 10:31:07;;;;;;;9.82;6.40;;;;;;;38.94;35.62;101599.78;4988240;28;20037;-68
2023/07/09 10:33:43;;;;;;;9.88;6.65;;;;;;;38.91;31.57;101597.47;4987871;28;20038;-68
2023/07/09 10:36:41;;;;;;;9.52;6.68;;;;;;;38.97;34.75;101601.19;4987669;28;20366;-68
2023/07/09 10:39:13;;;;;;;12.20;6.97;;;;;;;39.28;32.56;101594.38;4987909;28;20053;-68
2023/07/09 10:41:40;;;;;;;11.45;6.65;;;;;;;39.49;31.17;101600.06;4988008;28;20046;-68
2023/07/09 10:44:25;;;;;;;12.38;6.55;;;;;;;39.35;33.25;101601.78;4988123;28;20058;-67
2023/07/09 10:46:57;;;;;;;10.85;6.50;;;;;;;39.21;35.00;101610.03;4988605;28;20038;-68
2023/07/09 10:49:29;;;;;;;8.50;6.05;;;;;;;39.45;34.01;101602.66;5002782;28;20034;-68
2023/07/09 10:52:04;;;;;;;11.20;6.40;;;;;;;39.50;32.54;101598.94;5006420;28;20029;-68
2023/07/09 10:54:41;;;;;;;10.27;6.28;;;;;;;39.47;32.07;101590.94;5007034;28;20069;-67
2023/07/09 10:57:17;;;;;;;10.68;6.07;;;;;;;39.46;32.50;101583.56;4992359;28;20034;-67
2023/07/09 10:59:49;;;;;;;7.20;5.15;;;;;;;39.57;33.22;101585.22;4987750;28;20407;-68
2023/07/09 11:02:25;;;;;;;10.65;5.78;;;;;;;39.68;32.69;101581.25;4987915;28;20049;-68
2023/07/09 11:04:55;;;;;;;8.50;5.72;;;;;;;39.67;32.25;101581.53;4988063;28;20121;-67
2023/07/09 11:07:32;;;;;;;8.80;5.18;;;;;;;39.48;32.59;101572.72;4987916;28;20046;-68
2023/07/09 11:10:01;;;;;;;12.23;6.07;;;;;;;39.44;31.52;101586.66;4987066;28;20038;-68
2023/07/09 11:12:42;;;;;;;7.53;5.68;;;;;;;39.18;31.63;101580.13;4987738;28;20025;-68
2023/07/09 11:15:08;;;;;;;10.82;6.00;;;;;;;39.18;32.19;101582.13;4991917;28;20050;-68
2023/07/09 11:17:39;;;;;;;8.43;5.15;;;;;;;39.04;33.32;101594.09;4991893;28;20038;-68
2023/07/09 11:20:16;;;;;;;;;;;;;;;39.51;34.16;101603.50;4991917;28;20427;-67
2023/07/09 11:22:41;;;;;;;9.50;5.95;;;;;;;39.29;32.22;101609.47;4990948;28;19944;-68